Hinkley, CA (92347)

4:18 PM PDT on August 28, 2015 (GMT -0700)
Silver Lakes / Helendale | | Change Station
CLOSE
Current Station
Personal Weather Station
Location: Helendale, CA
Elevation: 2438 ft
Nearby Weather Stations

Elev 2438 ft 34.76 °N, 117.33 °W | Updated 6 minutes ago

Clear
Clear
102.5 °F
Feels Like 99 °F
N
3.0
Wind Variable Wind from SW
Gusts 11.0 mph

Today
High -- | Low -- °F
--% Chance of Precip.
Yesterday
High -- | Low -- °F
Precip. -- in
6:18 AM 7:20 PM
Waxing Gibbous, 99% visible
Pressure 29.74 in
Visibility 10.0 miles
Clouds Clear
Heat Index 99 °F
Dew Point 48 °F
Humidity 16%
Rainfall 0.00 in
Snow Depth Not available.
UV 6 out of 12
Pollen 6.50 out of 12
Air Quality Not available.
Flu Activity Not available.
METAR KDAG 282250Z AUTO 34007KT 320V030 10SM CLR 42/04 A2984 RMK AO2 SLP071 T04170044
Pressure 29.74 in
Visibility 10.0 miles
Clouds Clear
Heat Index 99 °F
Dew Point 48 °F
Humidity 16%
Rainfall 0.00 in
Snow Depth Not available.
UV 6 out of 12
Pollen 6.50 out of 12
Air Quality Not available.
Flu Activity Not available.
METAR KDAG 282250Z AUTO 34007KT 320V030 10SM CLR 42/04 A2984 RMK AO2 SLP071 T04170044

10-Day Weather Forecast

×

Almanac

Astronomy

Aug. 28, 2015 Rise Set
Actual Time
Civil Twilight
Nautical Twilight
Astronomical Twilight
Moon
Length of Visible Light
Length of Day
Tomorrow will be .
, % of the Moon is Illuminated

Today's Extremes

State Highs State Lows

Community

WunderPhotos

Upload Photos

1,850,522 photos uploaded!

WunderBlogs® & News

Nearby

Air Quality

  Air Quality AQ Index Pollutant
Not available.

Snow Depth

Station Depth Elevation

Earthquake Activity

City Distance Mag. Time & Date
Minimum magnitude displayed is 2.5.

Coastal Water Temperatures

Place Temperature

Stations

Nearby Weather Stations

Station Location Temp. Windchill Dew Point Humidity Wind Precip. Elev Updated Type